Time,TemperatureF,DewpointF,PressureIn,WindDirection,WindDirectionDegrees,WindSpeedMPH,WindSpeedGustMPH,Humidity,HourlyPrecipIn,Conditions,Clouds,dailyrainin,SoftwareType,DateUTC
2018-01-21 00:03:00,31.9,30.6,29.98,SSE,159,1.0,2.0,95,0.00,,,0.00,Wunderground v.1.15,2018-01-21 06:03:00,
2018-01-21 00:09:00,31.9,30.6,29.99,SSE,159,1.0,2.0,95,0.00,,,0.00,Wunderground v.1.15,2018-01-21 06:09:00,
2018-01-21 00:19:00,31.4,30.1,29.99,SSE,159,0.0,1.0,95,0.00,,,0.00,Wunderground v.1.15,2018-01-21 06:19:00,
2018-01-21 00:24:00,31.4,30.1,29.99,SSE,159,0.0,0.0,95,0.00,,,0.00,Wunderground v.1.15,2018-01-21 06:24:00,
2018-01-21 00:30:00,31.4,30.1,29.99,SSE,159,0.0,0.0,95,0.00,,,0.00,Wunderground v.1.15,2018-01-21 06:30:00,
2018-01-21 00:36:00,31.6,30.3,29.99,SSE,159,0.0,1.0,95,0.00,,,0.00,Wunderground v.1.15,2018-01-21 06:36:00,
2018-01-21 00:41:00,31.9,30.6,29.99,SSE,159,0.0,0.0,95,0.00,,,0.00,Wunderground v.1.15,2018-01-21 06:41:00,
2018-01-21 00:52:00,32.3,31.0,29.99,SSE,159,0.0,0.0,95,0.00,,,0.00,Wunderground v.1.15,2018-01-21 06:52:00,
2018-01-21 00:58:00,32.3,31.0,29.99,SSE,159,0.0,0.0,95,0.00,,,0.00,Wunderground v.1.15,2018-01-21 06:58:00,
2018-01-21 01:03:00,32.3,31.0,29.99,SSE,159,0.0,0.0,95,0.00,,,0.00,Wunderground v.1.15,2018-01-21 07:03:00,
2018-01-21 01:09:00,31.7,30.4,29.99,SSE,159,0.0,0.0,95,0.00,,,0.00,Wunderground v.1.15,2018-01-21 07:09:00,
2018-01-21 01:19:00,30.8,29.5,29.99,SSE,159,0.0,0.0,95,0.00,,,0.00,Wunderground v.1.15,2018-01-21 07:19:00,
2018-01-21 01:25:00,30.6,29.3,29.99,SSE,159,0.0,0.0,95,0.00,,,0.00,Wunderground v.1.15,2018-01-21 07:25:00,
2018-01-21 01:31:00,30.5,29.2,29.99,SSE,159,0.0,0.0,95,0.00,,,0.00,Wunderground v.1.15,2018-01-21 07:31:00,
2018-01-21 01:37:00,30.4,29.1,29.99,SSE,159,0.0,0.0,95,0.00,,,0.00,Wunderground v.1.15,2018-01-21 07:37:00,
2018-01-21 01:42:00,30.2,28.9,29.99,SSE,159,0.0,0.0,95,0.00,,,0.00,Wunderground v.1.15,2018-01-21 07:42:00,
2018-01-21 01:47:00,30.1,28.8,29.99,SSE,159,0.0,0.0,95,0.00,,,0.00,Wunderground v.1.15,2018-01-21 07:47:00,
2018-01-21 01:52:00,30.0,28.7,29.99,SSE,159,0.0,0.0,95,0.00,,,0.00,Wunderground v.1.15,2018-01-21 07:52:00,
2018-01-21 01:57:00,29.9,28.6,29.99,SSE,159,0.0,0.0,95,0.00,,,0.00,Wunderground v.1.15,2018-01-21 07:57:00,
2018-01-21 02:08:00,30.1,28.8,30.00,SSE,159,0.0,0.0,95,0.00,,,0.00,Wunderground v.1.15,2018-01-21 08:08:00,
2018-01-21 02:13:00,30.0,28.7,30.00,SSE,159,0.0,0.0,95,0.00,,,0.00,Wunderground v.1.15,2018-01-21 08:13:00,
2018-01-21 02:18:00,29.6,28.3,30.00,SSE,159,0.0,0.0,95,0.00,,,0.00,Wunderground v.1.15,2018-01-21 08:18:00,
2018-01-21 02:24:00,29.3,28.0,29.99,SSE,159,0.0,0.0,95,0.00,,,0.00,Wunderground v.1.15,2018-01-21 08:24:00,
2018-01-21 02:30:00,29.1,27.8,29.99,SSE,159,0.0,0.0,95,0.00,,,0.00,Wunderground v.1.15,2018-01-21 08:30:00,
2018-01-21 02:36:00,28.8,27.5,29.99,SSE,159,0.0,0.0,95,0.00,,,0.00,Wunderground v.1.15,2018-01-21 08:36:00,
2018-01-21 02:41:00,28.5,27.3,29.99,SSE,159,0.0,0.0,95,0.00,,,0.00,Wunderground v.1.15,2018-01-21 08:41:00,
2018-01-21 02:46:00,28.2,27.0,29.98,SSE,159,0.0,0.0,95,0.00,,,0.00,Wunderground v.1.15,2018-01-21 08:46:00,
2018-01-21 03:03:00,27.7,26.5,29.99,SSE,159,0.0,0.0,95,0.00,,,0.00,Wunderground v.1.15,2018-01-21 09:03:00,
2018-01-21 03:09:00,27.6,26.4,29.99,SSE,159,0.0,0.0,95,0.00,,,0.00,Wunderground v.1.15,2018-01-21 09:09:00,
2018-01-21 03:14:00,27.5,26.3,29.99,SSE,159,0.0,0.0,95,0.00,,,0.00,Wunderground v.1.15,2018-01-21 09:14:00,
2018-01-21 03:19:00,27.4,26.2,29.98,SSE,159,0.0,0.0,95,0.00,,,0.00,Wunderground v.1.15,2018-01-21 09:19:00,
2018-01-21 03:24:00,27.4,26.2,29.98,SSE,159,0.0,0.0,95,0.00,,,0.00,Wunderground v.1.15,2018-01-21 09:24:00,
2018-01-21 03:29:00,27.0,25.8,29.98,SSE,159,0.0,0.0,95,0.00,,,0.00,Wunderground v.1.15,2018-01-21 09:29:00,
2018-01-21 03:35:00,27.0,25.8,29.98,SSE,159,0.0,0.0,95,0.00,,,0.00,Wunderground v.1.15,2018-01-21 09:35:00,
2018-01-21 03:40:00,27.0,25.8,29.98,SSE,159,0.0,0.0,95,0.00,,,0.00,Wunderground v.1.15,2018-01-21 09:40:00,
2018-01-21 03:45:00,27.0,25.8,29.98,SSE,159,0.0,0.0,95,0.00,,,0.00,Wunderground v.1.15,2018-01-21 09:45:00,
2018-01-21 03:50:00,26.8,25.6,29.98,SSE,159,0.0,0.0,95,0.00,,,0.00,Wunderground v.1.15,2018-01-21 09:50:00,
2018-01-21 03:55:00,26.5,25.3,29.98,SSE,159,0.0,0.0,95,0.00,,,0.00,Wunderground v.1.15,2018-01-21 09:55:00,
2018-01-21 04:01:00,26.9,25.9,29.99,SSE,159,0.0,0.0,96,0.00,,,0.00,Wunderground v.1.15,2018-01-21 10:01:00,
2018-01-21 04:06:00,26.8,25.8,29.99,SSE,159,0.0,0.0,96,0.00,,,0.00,Wunderground v.1.15,2018-01-21 10:06:00,
2018-01-21 04:11:00,26.8,25.8,29.99,SSE,159,0.0,0.0,96,0.00,,,0.00,Wunderground v.1.15,2018-01-21 10:11:00,
2018-01-21 04:16:00,27.8,26.8,29.99,SSE,159,0.0,1.0,96,0.00,,,0.00,Wunderground v.1.15,2018-01-21 10:16:00,
2018-01-21 04:22:00,28.3,27.3,29.99,SSE,159,1.0,1.0,96,0.00,,,0.00,Wunderground v.1.15,2018-01-21 10:22:00,
2018-01-21 04:27:00,28.1,27.1,29.99,SSE,159,1.0,1.0,96,0.00,,,0.00,Wunderground v.1.15,2018-01-21 10:27:00,
2018-01-21 04:32:00,28.0,27.0,29.99,SSE,159,0.0,0.0,96,0.00,,,0.00,Wunderground v.1.15,2018-01-21 10:32:00,
2018-01-21 04:37:00,27.8,26.8,29.99,SSE,159,0.0,0.0,96,0.00,,,0.00,Wunderground v.1.15,2018-01-21 10:37:00,
2018-01-21 04:42:00,27.7,26.7,29.99,SSE,159,0.0,0.0,96,0.00,,,0.00,Wunderground v.1.15,2018-01-21 10:42:00,
2018-01-21 04:48:00,27.6,26.6,29.99,SSE,159,0.0,0.0,96,0.00,,,0.00,Wunderground v.1.15,2018-01-21 10:48:00,
2018-01-21 04:53:00,27.6,26.6,29.99,SSE,159,0.0,0.0,96,0.00,,,0.00,Wunderground v.1.15,2018-01-21 10:53:00,
2018-01-21 04:58:00,27.7,26.7,29.99,SSE,159,0.0,0.0,96,0.00,,,0.00,Wunderground v.1.15,2018-01-21 10:58:00,
2018-01-21 05:04:00,28.0,27.0,29.99,SSE,159,0.0,0.0,96,0.00,,,0.00,Wunderground v.1.15,2018-01-21 11:04:00,
2018-01-21 05:09:00,28.4,27.4,29.99,SSE,159,0.0,0.0,96,0.00,,,0.00,Wunderground v.1.15,2018-01-21 11:09:00,
2018-01-21 05:14:00,28.6,27.6,29.99,SSE,159,0.0,0.0,96,0.00,,,0.00,Wunderground v.1.15,2018-01-21 11:14:00,
2018-01-21 05:20:00,28.7,27.7,29.99,SSE,159,0.0,0.0,96,0.00,,,0.00,Wunderground v.1.15,2018-01-21 11:20:00,
2018-01-21 05:25:00,28.8,27.8,29.99,SSE,159,0.0,0.0,96,0.00,,,0.00,Wunderground v.1.15,2018-01-21 11:25:00,
2018-01-21 05:30:00,28.8,27.8,29.99,WSW,240,0.0,1.0,96,0.00,,,0.00,Wunderground v.1.15,2018-01-21 11:30:00,
2018-01-21 05:36:00,28.8,27.8,29.99,WSW,240,1.0,2.0,96,0.00,,,0.00,Wunderground v.1.15,2018-01-21 11:36:00,
2018-01-21 05:41:00,28.8,27.8,29.99,WSW,240,1.0,1.0,96,0.00,,,0.00,Wunderground v.1.15,2018-01-21 11:41:00,
2018-01-21 05:46:00,28.9,27.9,29.99,WSW,240,0.0,1.0,96,0.00,,,0.00,Wunderground v.1.15,2018-01-21 11:46:00,
2018-01-21 05:52:00,29.1,28.1,29.99,WSW,240,0.0,0.0,96,0.00,,,0.00,Wunderground v.1.15,2018-01-21 11:52:00,
2018-01-21 05:57:00,29.2,28.2,29.99,WSW,240,0.0,0.0,96,0.00,,,0.00,Wunderground v.1.15,2018-01-21 11:57:00,
2018-01-21 06:03:00,29.4,28.4,29.99,WSW,240,0.0,0.0,96,0.00,,,0.00,Wunderground v.1.15,2018-01-21 12:03:00,
2018-01-21 06:09:00,29.6,28.6,29.99,WSW,240,0.0,0.0,96,0.00,,,0.00,Wunderground v.1.15,2018-01-21 12:09:00,
2018-01-21 06:15:00,29.7,28.7,29.99,WSW,240,0.0,0.0,96,0.00,,,0.00,Wunderground v.1.15,2018-01-21 12:15:00,
2018-01-21 06:21:00,29.8,28.8,29.99,WSW,240,0.0,0.0,96,0.00,,,0.00,Wunderground v.1.15,2018-01-21 12:21:00,
2018-01-21 06:26:00,29.8,28.8,29.99,WSW,240,0.0,0.0,96,0.00,,,0.00,Wunderground v.1.15,2018-01-21 12:26:00,
2018-01-21 06:31:00,29.9,28.9,29.99,WSW,240,0.0,0.0,96,0.00,,,0.00,Wunderground v.1.15,2018-01-21 12:31:00,
2018-01-21 06:37:00,30.1,29.1,29.99,WSW,240,0.0,0.0,96,0.00,,,0.00,Wunderground v.1.15,2018-01-21 12:37:00,
2018-01-21 06:42:00,30.2,29.5,29.98,WSW,240,0.0,0.0,97,0.00,,,0.00,Wunderground v.1.15,2018-01-21 12:42:00,
2018-01-21 06:48:00,30.3,29.6,29.99,WSW,240,0.0,0.0,97,0.00,,,0.00,Wunderground v.1.15,2018-01-21 12:48:00,
2018-01-21 06:53:00,30.5,29.8,29.99,WSW,240,0.0,0.0,97,0.00,,,0.00,Wunderground v.1.15,2018-01-21 12:53:00,
2018-01-21 06:58:00,30.5,29.5,29.99,WSW,240,0.0,0.0,96,0.00,,,0.00,Wunderground v.1.15,2018-01-21 12:58:00,
2018-01-21 07:03:00,30.6,29.6,29.99,WSW,240,0.0,0.0,96,0.00,,,0.00,Wunderground v.1.15,2018-01-21 13:03:00,
2018-01-21 07:08:00,30.7,29.7,29.99,WSW,240,0.0,0.0,96,0.00,,,0.00,Wunderground v.1.15,2018-01-21 13:08:00,
2018-01-21 07:14:00,30.8,29.8,29.99,WSW,240,0.0,0.0,96,0.00,,,0.00,Wunderground v.1.15,2018-01-21 13:14:00,
2018-01-21 07:20:00,30.8,29.8,29.99,WSW,240,0.0,0.0,96,0.00,,,0.00,Wunderground v.1.15,2018-01-21 13:20:00,
2018-01-21 07:25:00,30.8,30.0,29.99,WSW,240,0.0,0.0,97,0.00,,,0.00,Wunderground v.1.15,2018-01-21 13:25:00,
2018-01-21 07:30:00,30.9,30.1,29.99,WSW,240,0.0,0.0,97,0.00,,,0.00,Wunderground v.1.15,2018-01-21 13:30:00,
2018-01-21 07:36:00,31.0,30.2,29.99,WSW,240,0.0,0.0,97,0.00,,,0.00,Wunderground v.1.15,2018-01-21 13:36:00,
2018-01-21 07:41:00,31.1,30.3,29.99,WSW,240,0.0,0.0,97,0.00,,,0.00,Wunderground v.1.15,2018-01-21 13:41:00,
2018-01-21 07:46:00,31.1,30.3,29.99,WSW,240,0.0,0.0,97,0.00,,,0.00,Wunderground v.1.15,2018-01-21 13:46:00,
2018-01-21 07:52:00,31.2,30.4,29.99,WSW,240,0.0,0.0,97,0.00,,,0.00,Wunderground v.1.15,2018-01-21 13:52:00,
2018-01-21 07:57:00,31.2,30.4,29.99,WSW,240,0.0,0.0,97,0.00,,,0.00,Wunderground v.1.15,2018-01-21 13:57:00,
2018-01-21 08:03:00,31.3,30.5,29.99,WSW,240,0.0,0.0,97,0.00,,,0.00,Wunderground v.1.15,2018-01-21 14:03:00,
2018-01-21 08:09:00,31.3,30.5,29.99,WSW,240,0.0,0.0,97,0.00,,,0.00,Wunderground v.1.15,2018-01-21 14:09:00,
2018-01-21 08:14:00,31.4,30.6,29.99,WSW,240,0.0,0.0,97,0.00,,,0.00,Wunderground v.1.15,2018-01-21 14:14:00,
2018-01-21 08:19:00,31.4,30.6,29.99,WSW,240,0.0,0.0,97,0.00,,,0.00,Wunderground v.1.15,2018-01-21 14:19:00,
2018-01-21 08:25:00,31.4,30.6,30.00,WSW,240,0.0,0.0,97,0.00,,,0.00,Wunderground v.1.15,2018-01-21 14:25:00,
2018-01-21 08:31:00,31.5,30.7,29.99,WSW,240,0.0,0.0,97,0.00,,,0.00,Wunderground v.1.15,2018-01-21 14:31:00,
2018-01-21 08:37:00,31.5,30.7,29.99,WSW,240,0.0,0.0,97,0.00,,,0.00,Wunderground v.1.15,2018-01-21 14:37:00,
2018-01-21 08:42:00,31.6,30.8,30.00,WSW,240,0.0,0.0,97,0.00,,,0.00,Wunderground v.1.15,2018-01-21 14:42:00,
2018-01-21 08:48:00,31.7,30.9,30.00,WSW,240,0.0,0.0,97,0.00,,,0.00,Wunderground v.1.15,2018-01-21 14:48:00,
2018-01-21 08:54:00,31.8,31.0,30.00,WSW,240,0.0,0.0,97,0.00,,,0.00,Wunderground v.1.15,2018-01-21 14:54:00,
2018-01-21 09:00:00,31.9,31.1,30.00,WSW,240,0.0,0.0,97,0.00,,,0.00,Wunderground v.1.15,2018-01-21 15:00:00,
2018-01-21 09:05:00,32.0,31.2,30.00,WSW,240,0.0,0.0,97,0.00,,,0.00,Wunderground v.1.15,2018-01-21 15:05:00,
2018-01-21 09:11:00,32.1,31.3,30.00,WSW,240,0.0,0.0,97,0.00,,,0.00,Wunderground v.1.15,2018-01-21 15:11:00,
2018-01-21 09:16:00,32.2,31.4,30.00,WSW,240,0.0,0.0,97,0.00,,,0.00,Wunderground v.1.15,2018-01-21 15:16:00,
2018-01-21 09:22:00,32.4,31.6,30.00,WSW,240,0.0,0.0,97,0.00,,,0.00,Wunderground v.1.15,2018-01-21 15:22:00,
2018-01-21 09:27:00,32.5,31.7,30.00,WSW,240,0.0,0.0,97,0.00,,,0.00,Wunderground v.1.15,2018-01-21 15:27:00,
2018-01-21 09:33:00,32.6,31.8,30.01,WSW,240,0.0,0.0,97,0.00,,,0.00,Wunderground v.1.15,2018-01-21 15:33:00,
2018-01-21 09:39:00,32.8,32.0,30.01,WSW,240,0.0,0.0,97,0.00,,,0.00,Wunderground v.1.15,2018-01-21 15:39:00,
2018-01-21 09:44:00,32.9,32.1,30.01,WSW,240,0.0,0.0,97,0.00,,,0.00,Wunderground v.1.15,2018-01-21 15:44:00,
2018-01-21 09:50:00,33.1,32.3,30.01,WSW,240,0.0,0.0,97,0.00,,,0.00,Wunderground v.1.15,2018-01-21 15:50:00,
2018-01-21 09:55:00,33.2,32.4,30.01,WSW,240,0.0,0.0,97,0.00,,,0.00,Wunderground v.1.15,2018-01-21 15:55:00,
2018-01-21 10:00:00,33.3,32.5,30.01,WSW,240,0.0,0.0,97,0.00,,,0.00,Wunderground v.1.15,2018-01-21 16:00:00,
2018-01-21 10:05:00,33.4,32.6,30.01,WSW,240,0.0,0.0,97,0.00,,,0.00,Wunderground v.1.15,2018-01-21 16:05:00,
2018-01-21 10:11:00,33.5,32.7,30.01,WSW,240,0.0,0.0,97,0.00,,,0.00,Wunderground v.1.15,2018-01-21 16:11:00,
2018-01-21 10:16:00,33.6,32.8,30.01,WSW,240,0.0,0.0,97,0.00,,,0.00,Wunderground v.1.15,2018-01-21 16:16:00,
2018-01-21 10:22:00,33.8,33.0,30.01,WSW,240,0.0,0.0,97,0.00,,,0.00,Wunderground v.1.15,2018-01-21 16:22:00,
2018-01-21 10:27:00,34.0,33.2,30.01,WSW,240,0.0,0.0,97,0.00,,,0.00,Wunderground v.1.15,2018-01-21 16:27:00,
2018-01-21 10:33:00,34.2,33.4,30.00,WSW,240,0.0,0.0,97,0.00,,,0.00,Wunderground v.1.15,2018-01-21 16:33:00,
2018-01-21 10:38:00,34.3,33.5,30.00,WSW,240,0.0,0.0,97,0.00,,,0.00,Wunderground v.1.15,2018-01-21 16:38:00,
2018-01-21 10:43:00,34.5,33.7,29.99,WSW,240,0.0,0.0,97,0.00,,,0.00,Wunderground v.1.15,2018-01-21 16:43:00,
2018-01-21 10:49:00,34.6,33.8,29.99,WSW,240,0.0,0.0,97,0.00,,,0.00,Wunderground v.1.15,2018-01-21 16:49:00,
2018-01-21 10:54:00,34.9,34.1,29.99,WSW,240,0.0,0.0,97,0.00,,,0.00,Wunderground v.1.15,2018-01-21 16:54:00,
2018-01-21 10:59:00,34.9,34.1,29.99,WSW,240,0.0,0.0,97,0.00,,,0.00,Wunderground v.1.15,2018-01-21 16:59:00,
2018-01-21 11:05:00,34.9,34.1,29.98,WSW,240,0.0,0.0,97,0.00,,,0.00,Wunderground v.1.15,2018-01-21 17:05:00,
2018-01-21 11:11:00,34.9,34.1,29.98,SSW,207,0.0,1.0,97,0.00,,,0.00,Wunderground v.1.15,2018-01-21 17:11:00,
2018-01-21 11:16:00,34.9,34.1,29.98,ESE,111,1.0,1.0,97,0.00,,,0.00,Wunderground v.1.15,2018-01-21 17:16:00,
2018-01-21 11:22:00,35.0,34.2,29.97,ESE,111,1.0,1.0,97,0.00,,,0.00,Wunderground v.1.15,2018-01-21 17:22:00,
2018-01-21 11:27:00,35.1,34.3,29.97,ESE,111,0.0,2.0,97,0.00,,,0.00,Wunderground v.1.15,2018-01-21 17:27:00,
2018-01-21 11:32:00,35.2,34.4,29.97,ESE,111,1.0,1.0,97,0.00,,,0.00,Wunderground v.1.15,2018-01-21 17:32:00,
2018-01-21 11:38:00,35.3,34.5,29.97,ESE,111,0.0,1.0,97,0.00,,,0.00,Wunderground v.1.15,2018-01-21 17:38:00,
2018-01-21 11:43:00,35.3,34.5,29.96,ESE,111,0.0,0.0,97,0.00,,,0.00,Wunderground v.1.15,2018-01-21 17:43:00,
2018-01-21 11:48:00,35.5,34.7,29.96,ESE,111,0.0,0.0,97,0.00,,,0.00,Wunderground v.1.15,2018-01-21 17:48:00,
2018-01-21 11:53:00,35.6,34.8,29.96,ESE,111,0.0,0.0,97,0.00,,,0.00,Wunderground v.1.15,2018-01-21 17:53:00,
2018-01-21 11:58:00,35.6,34.6,29.96,ESE,103,0.0,0.0,96,0.00,,,0.00,Wunderground v.1.15,2018-01-21 17:58:00,
2018-01-21 12:03:00,35.8,34.8,29.95,ESE,103,0.0,1.0,96,0.00,,,0.00,Wunderground v.1.15,2018-01-21 18:03:00,
2018-01-21 12:09:00,35.9,34.9,29.95,ESE,103,1.0,1.0,96,0.00,,,0.00,Wunderground v.1.15,2018-01-21 18:09:00,
2018-01-21 12:14:00,35.9,34.9,29.95,ESE,103,0.0,1.0,96,0.00,,,0.00,Wunderground v.1.15,2018-01-21 18:14:00,
2018-01-21 12:19:00,35.8,34.8,29.95,ESE,103,0.0,1.0,96,0.00,,,0.00,Wunderground v.1.15,2018-01-21 18:19:00,
2018-01-21 12:25:00,36.0,35.0,29.95,ESE,103,0.0,0.0,96,0.00,,,0.00,Wunderground v.1.15,2018-01-21 18:25:00,
2018-01-21 12:30:00,35.9,34.9,29.94,ESE,103,0.0,0.0,96,0.00,,,0.00,Wunderground v.1.15,2018-01-21 18:30:00,
2018-01-21 12:35:00,36.0,35.0,29.94,ESE,103,0.0,0.0,96,0.00,,,0.00,Wunderground v.1.15,2018-01-21 18:35:00,
2018-01-21 12:41:00,35.9,34.9,29.94,ESE,103,0.0,0.0,96,0.00,,,0.00,Wunderground v.1.15,2018-01-21 18:41:00,
2018-01-21 12:46:00,35.9,34.9,29.94,ESE,103,0.0,0.0,96,0.00,,,0.00,Wunderground v.1.15,2018-01-21 18:46:00,
2018-01-21 12:52:00,35.9,34.9,29.94,ESE,103,0.0,0.0,96,0.00,,,0.00,Wunderground v.1.15,2018-01-21 18:52:00,
2018-01-21 12:57:00,35.9,34.9,29.94,ESE,103,0.0,0.0,96,0.00,,,0.00,Wunderground v.1.15,2018-01-21 18:57:00,
2018-01-21 13:02:00,36.0,35.0,29.94,ESE,103,0.0,0.0,96,0.00,,,0.00,Wunderground v.1.15,2018-01-21 19:02:00,
2018-01-21 13:08:00,36.1,35.1,29.93,ESE,103,0.0,0.0,96,0.00,,,0.00,Wunderground v.1.15,2018-01-21 19:08:00,
2018-01-21 13:14:00,36.1,35.1,29.93,ESE,103,0.0,0.0,96,0.00,,,0.00,Wunderground v.1.15,2018-01-21 19:14:00,
2018-01-21 13:20:00,36.1,35.1,29.92,ESE,103,0.0,0.0,96,0.00,,,0.00,Wunderground v.1.15,2018-01-21 19:20:00,
2018-01-21 13:25:00,36.3,35.3,29.92,ESE,103,0.0,0.0,96,0.00,,,0.00,Wunderground v.1.15,2018-01-21 19:25:00,
2018-01-21 13:30:00,36.4,35.4,29.93,ESE,103,0.0,0.0,96,0.00,,,0.00,Wunderground v.1.15,2018-01-21 19:30:00,
2018-01-21 13:36:00,36.4,35.4,29.93,ESE,103,0.0,0.0,96,0.00,,,0.00,Wunderground v.1.15,2018-01-21 19:36:00,
2018-01-21 13:41:00,36.4,35.4,29.93,ESE,103,0.0,0.0,96,0.00,,,0.00,Wunderground v.1.15,2018-01-21 19:41:00,
2018-01-21 13:46:00,36.5,35.5,29.93,ESE,103,0.0,0.0,96,0.00,,,0.00,Wunderground v.1.15,2018-01-21 19:46:00,
2018-01-21 13:52:00,36.4,35.4,29.93,ESE,103,0.0,1.0,96,0.00,,,0.00,Wunderground v.1.15,2018-01-21 19:52:00,
2018-01-21 13:57:00,36.4,35.4,29.93,ESE,103,0.0,1.0,96,0.00,,,0.00,Wunderground v.1.15,2018-01-21 19:57:00,
2018-01-21 14:02:00,36.5,35.5,29.93,ESE,103,0.0,0.0,96,0.00,,,0.00,Wunderground v.1.15,2018-01-21 20:02:00,
2018-01-21 14:08:00,36.4,35.4,29.93,ESE,112,0.0,1.0,96,0.00,,,0.00,Wunderground v.1.15,2018-01-21 20:08:00,
2018-01-21 14:13:00,36.5,35.5,29.92,ESE,112,1.0,2.0,96,0.00,,,0.00,Wunderground v.1.15,2018-01-21 20:13:00,
2018-01-21 14:24:00,36.4,35.4,29.93,ESE,112,0.0,1.0,96,0.00,,,0.00,Wunderground v.1.15,2018-01-21 20:24:00,
2018-01-21 14:29:00,36.5,35.5,29.92,ESE,112,0.0,1.0,96,0.00,,,0.00,Wunderground v.1.15,2018-01-21 20:29:00,
2018-01-21 14:40:00,36.4,35.4,29.93,ESE,112,0.0,0.0,96,0.00,,,0.00,Wunderground v.1.15,2018-01-21 20:40:00,
2018-01-21 14:52:00,36.5,35.7,29.93,ESE,112,0.0,1.0,97,0.00,,,0.00,Wunderground v.1.15,2018-01-21 20:52:00,
2018-01-21 14:57:00,36.5,35.7,29.93,ESE,112,0.0,2.0,97,0.00,,,0.00,Wunderground v.1.15,2018-01-21 20:57:00,
2018-01-21 15:03:00,36.6,35.8,29.93,ESE,112,1.0,2.0,97,0.00,,,0.00,Wunderground v.1.15,2018-01-21 21:03:00,
2018-01-21 15:13:00,36.6,35.8,29.93,ESE,112,1.0,2.0,97,0.00,,,0.00,Wunderground v.1.15,2018-01-21 21:13:00,
2018-01-21 15:19:00,36.5,35.7,29.93,ESE,112,1.0,2.0,97,0.00,,,0.00,Wunderground v.1.15,2018-01-21 21:19:00,
2018-01-21 15:24:00,36.6,35.8,29.93,ESE,112,1.0,1.0,97,0.00,,,0.00,Wunderground v.1.15,2018-01-21 21:24:00,
2018-01-21 15:29:00,36.4,35.4,29.93,ESE,112,1.0,1.0,96,0.00,,,0.00,Wunderground v.1.15,2018-01-21 21:29:00,
2018-01-21 15:35:00,36.4,35.4,29.93,ESE,112,0.0,1.0,96,0.00,,,0.00,Wunderground v.1.15,2018-01-21 21:35:00,
2018-01-21 15:41:00,36.2,35.2,29.93,ESE,112,0.0,0.0,96,0.00,,,0.00,Wunderground v.1.15,2018-01-21 21:41:00,
2018-01-21 15:52:00,36.2,35.4,29.93,ESE,112,0.0,0.0,97,0.00,,,0.00,Wunderground v.1.15,2018-01-21 21:52:00,
2018-01-21 15:57:00,36.1,35.3,29.93,ESE,112,0.0,0.0,97,0.00,,,0.00,Wunderground v.1.15,2018-01-21 21:57:00,
2018-01-21 16:03:00,36.2,35.4,29.93,ESE,112,0.0,0.0,97,0.00,,,0.00,Wunderground v.1.15,2018-01-21 22:03:00,
2018-01-21 16:09:00,36.2,35.4,29.93,ESE,112,0.0,0.0,97,0.00,,,0.00,Wunderground v.1.15,2018-01-21 22:09:00,
2018-01-21 16:20:00,36.3,35.5,29.93,ESE,112,0.0,0.0,97,0.00,,,0.00,Wunderground v.1.15,2018-01-21 22:20:00,
2018-01-21 16:25:00,36.2,35.4,29.94,ESE,112,0.0,1.0,97,0.00,,,0.00,Wunderground v.1.15,2018-01-21 22:25:00,
2018-01-21 16:30:00,36.2,35.4,29.94,ESE,112,1.0,1.0,97,0.00,,,0.00,Wunderground v.1.15,2018-01-21 22:30:00,
2018-01-21 16:36:00,36.3,35.5,29.94,East,84,1.0,2.0,97,0.00,,,0.00,Wunderground v.1.15,2018-01-21 22:36:00,
2018-01-21 18:43:00,36.0,35.2,29.94,East,97,0.0,0.0,97,0.00,,,0.00,Wunderground v.1.15,2018-01-22 00:43:00,
2018-01-21 18:49:00,36.0,35.2,29.94,East,97,0.0,0.0,97,0.00,,,0.00,Wunderground v.1.15,2018-01-22 00:49:00,
2018-01-21 18:54:00,36.2,35.4,29.94,East,97,0.0,0.0,97,0.00,,,0.00,Wunderground v.1.15,2018-01-22 00:54:00,
2018-01-21 19:00:00,36.1,35.3,29.94,East,97,0.0,0.0,97,0.00,,,0.00,Wunderground v.1.15,2018-01-22 01:00:00,
2018-01-21 19:05:00,36.0,35.2,29.93,East,97,0.0,0.0,97,0.00,,,0.00,Wunderground v.1.15,2018-01-22 01:05:00,
2018-01-21 19:11:00,36.0,35.2,29.93,East,97,0.0,0.0,97,0.00,,,0.00,Wunderground v.1.15,2018-01-22 01:11:00,
2018-01-21 19:16:00,36.0,35.2,29.93,East,97,0.0,0.0,97,0.00,,,0.00,Wunderground v.1.15,2018-01-22 01:16:00,
2018-01-21 19:21:00,36.0,35.2,29.93,East,97,0.0,0.0,97,0.00,,,0.00,Wunderground v.1.15,2018-01-22 01:21:00,
2018-01-21 19:27:00,35.9,35.1,29.93,East,97,0.0,0.0,97,0.00,,,0.00,Wunderground v.1.15,2018-01-22 01:27:00,
2018-01-21 19:32:00,35.8,35.0,29.92,East,97,0.0,0.0,97,0.00,,,0.00,Wunderground v.1.15,2018-01-22 01:32:00,
2018-01-21 19:37:00,35.8,35.0,29.92,East,97,0.0,0.0,97,0.00,,,0.00,Wunderground v.1.15,2018-01-22 01:37:00,
2018-01-21 19:43:00,35.9,35.1,29.92,ESE,105,1.0,3.0,97,0.00,,,0.00,Wunderground v.1.15,2018-01-22 01:43:00,
2018-01-21 19:49:00,35.9,35.1,29.92,East,92,1.0,3.0,97,0.00,,,0.00,Wunderground v.1.15,2018-01-22 01:49:00,
2018-01-21 19:55:00,35.8,35.0,29.92,East,92,0.0,1.0,97,0.00,,,0.00,Wunderground v.1.15,2018-01-22 01:55:00,
2018-01-21 20:00:00,35.8,35.0,29.92,East,92,0.0,0.0,97,0.00,,,0.00,Wunderground v.1.15,2018-01-22 02:00:00,
2018-01-21 20:05:00,35.8,35.0,29.92,East,92,0.0,0.0,97,0.00,,,0.00,Wunderground v.1.15,2018-01-22 02:05:00,
2018-01-21 20:11:00,35.6,34.8,29.92,East,92,0.0,1.0,97,0.00,,,0.00,Wunderground v.1.15,2018-01-22 02:11:00,
2018-01-21 20:16:00,35.6,34.8,29.92,East,92,0.0,1.0,97,0.00,,,0.00,Wunderground v.1.15,2018-01-22 02:16:00,
2018-01-21 20:22:00,35.9,35.1,29.91,East,92,0.0,1.0,97,0.00,,,0.00,Wunderground v.1.15,2018-01-22 02:22:00,
2018-01-21 20:27:00,35.9,35.1,29.90,East,92,0.0,1.0,97,0.00,,,0.00,Wunderground v.1.15,2018-01-22 02:27:00,
2018-01-21 20:32:00,35.9,35.1,29.90,East,92,0.0,1.0,97,0.00,,,0.00,Wunderground v.1.15,2018-01-22 02:32:00,
2018-01-21 20:44:00,35.9,35.1,29.90,East,92,0.0,1.0,97,0.00,,,0.00,Wunderground v.1.15,2018-01-22 02:44:00,
2018-01-21 20:50:00,35.9,35.1,29.89,East,92,1.0,1.0,97,0.00,,,0.00,Wunderground v.1.15,2018-01-22 02:50:00,
2018-01-21 20:56:00,36.1,35.3,29.89,East,88,1.0,3.0,97,0.00,,,0.00,Wunderground v.1.15,2018-01-22 02:56:00,
2018-01-21 21:01:00,36.2,35.4,29.90,ESE,109,1.0,2.0,97,0.00,,,0.00,Wunderground v.1.15,2018-01-22 03:01:00,
2018-01-21 21:07:00,36.2,35.4,29.89,East,89,1.0,3.0,97,0.00,,,0.00,Wunderground v.1.15,2018-01-22 03:07:00,
2018-01-21 21:12:00,36.2,35.4,29.89,East,86,1.0,1.0,97,0.00,,,0.00,Wunderground v.1.15,2018-01-22 03:12:00,
2018-01-21 21:18:00,36.1,35.3,29.90,East,86,1.0,3.0,97,0.00,,,0.00,Wunderground v.1.15,2018-01-22 03:18:00,
2018-01-21 21:23:00,36.1,35.3,29.91,East,90,1.0,2.0,97,0.00,,,0.00,Wunderground v.1.15,2018-01-22 03:23:00,
2018-01-21 21:29:00,35.9,35.1,29.90,East,85,1.0,2.0,97,0.00,,,0.00,Wunderground v.1.15,2018-01-22 03:29:00,
2018-01-21 21:35:00,36.0,35.2,29.91,SE,133,1.0,4.0,97,0.00,,,0.00,Wunderground v.1.15,2018-01-22 03:35:00,
2018-01-21 21:40:00,35.9,35.1,29.92,SE,125,1.0,1.0,97,0.00,,,0.00,Wunderground v.1.15,2018-01-22 03:40:00,
2018-01-21 21:46:00,35.9,35.1,29.91,SE,125,0.0,1.0,97,0.00,,,0.00,Wunderground v.1.15,2018-01-22 03:46:00,
2018-01-21 21:52:00,35.9,35.1,29.91,ESE,109,1.0,1.0,97,0.00,,,0.00,Wunderground v.1.15,2018-01-22 03:52:00,
2018-01-21 21:57:00,35.9,35.1,29.91,East,81,1.0,1.0,97,0.00,,,0.00,Wunderground v.1.15,2018-01-22 03:57:00,
2018-01-21 22:02:00,35.8,35.0,29.91,East,80,1.0,1.0,97,0.00,,,0.00,Wunderground v.1.15,2018-01-22 04:02:00,
2018-01-21 22:07:00,35.8,35.0,29.91,ENE,76,1.0,2.0,97,0.00,,,0.00,Wunderground v.1.15,2018-01-22 04:07:00,
2018-01-21 22:13:00,35.7,34.9,29.91,ENE,76,1.0,1.0,97,0.00,,,0.00,Wunderground v.1.15,2018-01-22 04:13:00,
2018-01-21 22:18:00,35.7,34.9,29.91,ENE,76,0.0,1.0,97,0.00,,,0.00,Wunderground v.1.15,2018-01-22 04:18:00,
2018-01-21 22:30:00,35.7,34.9,29.89,East,91,1.0,1.0,97,0.00,,,0.00,Wunderground v.1.15,2018-01-22 04:30:00,
2018-01-21 22:41:00,35.7,34.9,29.89,East,90,2.0,2.0,97,0.00,,,0.00,Wunderground v.1.15,2018-01-22 04:41:00,
2018-01-21 22:57:00,35.7,34.9,29.88,East,86,2.0,3.0,97,0.00,,,0.00,Wunderground v.1.15,2018-01-22 04:57:00,